New Boston, New Hampshire
Current Conditions -  °F | °C
As of 4:53 PM on Wednesday 26 Nov 2014 (Local Time) from KMHT Reporting Station
Moderate Snow Moderate Snow  
Wind Chill: 23°   Ceiling: 600
Heat Index: 33°   Visibility: 0.5mi
Dew Point: 31°   Wind: 15mph
Humidity: 92%   Direction: 20°NNE
Pressure: 29.95"   Gusts: 18mph
Location:  42.98°N, 71.69°W
Report Text: KMHT 262153Z 02013G16KT 1/2SM R35/4000VP6000FT SN FG OVC006 01/M01 A2995 RMK AO2 SLP159 SNINCR 1/6 P0010 T00061006
Loading
Personal Weather Stations






























Interactive Weather Map New forecast layout! Learn more

10-Day Weather Forecast

Advertisements
Track Severe Weather on mobile